Athens, Arkansas
Current Conditions -  °F | °C
As of 9:35 AM on Friday 31 Oct 2014 (Local Time) from KMEZ Reporting Station
Clear Clear  
Wind Chill: 13°   Ceiling: Unl
Heat Index: 13°   Visibility: 10mi
Dew Point:   Wind: 12mph
Humidity: 63%   Direction: 330°NNW
Pressure: 30.25"   Gusts: 20mph
Location:  34.2871°N, 94.1174°W
Report Text: KMEZ 311435Z AUTO 33010G17KT 10SM CLR 13/06 A3025 RMK AO2
Loading
Personal Weather Stations






























Interactive Weather Map
Tropical Storm Tracking
New forecast layout! Learn more

10-Day Weather Forecast

Advertisements
Track Severe Weather on mobile